createdAt,value
2019-04-23T00:02:23.274Z,48.30
2019-04-23T00:04:50.535Z,49.10
2019-04-23T00:07:39.718Z,48.80
2019-04-23T00:10:01.190Z,48.90
2019-04-23T00:12:38.069Z,48.90
2019-04-23T00:15:08.816Z,48.90
2019-04-23T00:17:40.381Z,49.20
2019-04-23T00:20:09.590Z,49.20
2019-04-23T00:23:06.434Z,49.60
2019-04-23T00:25:56.173Z,48.90
2019-04-23T00:30:58.247Z,49.20
2019-04-23T00:35:56.579Z,49.60
2019-04-23T00:38:35.186Z,50.10
2019-04-23T00:41:05.099Z,50.30
2019-04-23T00:43:32.799Z,50.50
2019-04-23T00:45:59.341Z,50.70
2019-04-23T00:48:35.877Z,50.30
2019-04-23T00:53:34.282Z,50.40
2019-04-23T00:56:29.982Z,51.00
2019-04-23T01:01:32.678Z,51.00
2019-04-23T01:03:47.021Z,51.50
2019-04-23T01:06:17.063Z,52.00
2019-04-23T01:08:44.178Z,50.80
2019-04-23T01:11:14.800Z,50.90
2019-04-23T01:13:49.197Z,51.90
2019-04-23T01:16:16.412Z,51.50
2019-04-23T01:18:58.270Z,51.10
2019-04-23T01:21:32.529Z,51.50
2019-04-23T01:24:25.062Z,51.40
2019-04-23T01:27:47.415Z,51.60
2019-04-23T01:30:09.941Z,50.30
2019-04-23T01:35:17.640Z,52.00
2019-04-23T01:37:41.274Z,52.10
2019-04-23T01:45:20.047Z,52.20
2019-04-23T01:47:45.641Z,53.00
2019-04-23T01:50:28.656Z,52.10
2019-04-23T01:55:26.270Z,53.20
2019-04-23T01:58:07.056Z,52.70
2019-04-23T02:00:30.638Z,53.20
2019-04-23T02:03:04.049Z,53.00
2019-04-23T02:08:03.986Z,53.10
2019-04-23T02:10:51.285Z,53.60
2019-04-23T02:13:11.093Z,54.00
2019-04-23T02:15:36.274Z,54.50
2019-04-23T02:18:13.353Z,53.80
2019-04-23T02:20:43.201Z,54.30
2019-04-23T02:23:33.217Z,54.40
2019-04-23T02:26:07.888Z,54.60
2019-04-23T02:28:38.840Z,54.80
2019-04-23T02:31:25.297Z,69.30
2019-04-23T02:33:44.649Z,56.10
2019-04-23T02:36:31.435Z,56.00
2019-04-23T02:41:16.416Z,55.40
2019-04-23T02:43:44.186Z,54.80
2019-04-23T02:46:09.758Z,54.90
2019-04-23T02:49:00.006Z,55.30
2019-04-23T02:51:39.571Z,54.20
2019-04-23T02:56:37.936Z,54.50
2019-04-23T03:01:32.040Z,55.40
2019-04-23T03:04:12.636Z,55.50
2019-04-23T03:06:43.716Z,54.70
2019-04-23T03:09:23.308Z,54.70
2019-04-23T03:11:41.685Z,54.60
2019-04-23T03:25:12.574Z,56.10
2019-04-23T03:30:30.209Z,55.80
2019-04-23T03:34:10.915Z,56.30
2019-04-23T03:37:49.312Z,56.00
2019-04-23T03:40:15.693Z,58.30
2019-04-23T03:47:56.144Z,56.60
2019-04-23T03:52:57.647Z,56.80
2019-04-23T03:55:52.062Z,56.60
2019-04-23T04:00:51.457Z,55.60
2019-04-23T04:03:10.447Z,55.40
2019-04-23T04:08:13.775Z,55.80
2019-04-23T04:10:52.365Z,56.70
2019-04-23T04:13:09.734Z,55.20
2019-04-23T04:15:48.887Z,55.40
2019-04-23T04:18:25.835Z,56.20
2019-04-23T04:20:44.158Z,55.80
2019-04-23T04:23:19.136Z,55.40
2019-04-23T04:25:44.012Z,72.00
2019-04-23T04:28:24.759Z,55.60
2019-04-23T04:30:43.776Z,55.50
2019-04-23T04:36:07.766Z,55.90
2019-04-23T04:38:36.690Z,55.80
2019-04-23T04:41:03.068Z,56.20
2019-04-23T04:48:35.807Z,54.70
2019-04-23T04:51:15.717Z,55.10
2019-04-23T04:56:14.290Z,55.50
2019-04-23T04:58:44.069Z,54.90
2019-04-23T05:01:08.540Z,55.40
2019-04-23T05:03:29.669Z,54.60
2019-04-23T05:19:02.679Z,55.40
2019-04-23T05:21:12.143Z,56.00
2019-04-23T05:26:21.083Z,55.30
2019-04-23T05:28:55.503Z,55.70
2019-04-23T05:31:20.350Z,55.90
2019-04-23T05:33:57.131Z,55.20
2019-04-23T05:36:35.924Z,55.40
2019-04-23T05:41:23.360Z,55.60
2019-04-23T05:43:52.610Z,56.50
2019-04-23T05:46:26.361Z,56.20
2019-04-23T05:48:59.621Z,56.10
2019-04-23T05:51:36.341Z,55.00
2019-04-23T05:54:05.601Z,55.50
2019-04-23T05:56:27.719Z,55.60
2019-04-23T05:59:06.576Z,55.50
2019-04-23T06:07:11.451Z,55.40
2019-04-23T06:09:26.614Z,55.30
2019-04-23T06:11:56.468Z,56.20
2019-04-23T06:14:29.140Z,55.60
2019-04-23T06:17:02.197Z,55.80
2019-04-23T06:19:22.753Z,55.90
2019-04-23T06:32:06.551Z,57.40
2019-04-23T06:34:33.947Z,58.50
2019-04-23T06:37:09.580Z,59.50
2019-04-23T06:42:17.491Z,59.20
2019-04-23T06:47:28.926Z,59.40
2019-04-23T06:49:55.956Z,59.70
2019-04-23T07:00:00.605Z,59.10
2019-04-23T07:02:48.806Z,57.50
2019-04-23T07:05:15.792Z,56.90
2019-04-23T07:07:55.252Z,57.20
2019-04-23T07:10:36.957Z,48.60
2019-04-23T07:12:47.210Z,46.10
2019-04-23T07:17:42.785Z,48.10
2019-04-23T07:20:25.150Z,49.00
2019-04-23T07:22:56.899Z,47.40
2019-04-23T07:27:58.525Z,45.90
2019-04-23T07:30:30.832Z,45.90
2019-04-23T07:33:01.824Z,39.00
2019-04-23T07:35:21.206Z,54.20
2019-04-23T07:38:12.871Z,38.70
2019-04-23T07:40:40.473Z,38.30
2019-04-23T07:43:41.147Z,37.60
2019-04-23T07:46:25.026Z,36.60
2019-04-23T07:48:48.038Z,37.30
2019-04-23T07:51:27.613Z,37.60
2019-04-23T07:54:01.234Z,36.70
2019-04-23T08:01:26.490Z,36.30
2019-04-23T08:04:04.691Z,36.40
2019-04-23T08:06:34.830Z,37.10
2019-04-23T08:09:00.840Z,36.50
2019-04-23T08:14:08.347Z,36.10
2019-04-23T08:16:54.174Z,36.60
2019-04-23T08:19:15.434Z,35.40
2019-04-23T08:24:38.041Z,34.30
2019-04-23T08:29:41.104Z,35.70
2019-04-23T08:32:13.883Z,35.80
2019-04-23T08:37:25.279Z,36.00
2019-04-23T08:39:48.051Z,36.50
2019-04-23T08:48:14.371Z,36.60
2019-04-23T08:53:23.282Z,34.40
2019-04-23T08:55:46.877Z,33.00
2019-04-23T08:58:14.112Z,33.70
2019-04-23T09:00:51.912Z,32.60
2019-04-23T09:03:20.271Z,34.00
2019-04-23T09:08:20.428Z,63.40
2019-04-23T09:10:55.834Z,33.70
2019-04-23T09:13:51.714Z,32.70
2019-04-23T09:20:49.235Z,32.90
2019-04-23T09:23:35.126Z,31.70
2019-04-23T09:28:42.036Z,31.80
2019-04-23T09:31:27.947Z,30.80
2019-04-23T09:39:37.713Z,31.50
2019-04-23T09:42:28.226Z,31.10
2019-04-23T09:47:53.709Z,31.30
2019-04-23T09:53:11.098Z,29.50
2019-04-23T09:55:33.626Z,29.60
2019-04-23T10:00:51.417Z,29.30
2019-04-23T10:03:02.300Z,29.80
2019-04-23T10:05:28.728Z,29.60
2019-04-23T10:07:59.935Z,29.40
2019-04-23T10:10:20.720Z,29.90
2019-04-23T10:12:50.344Z,29.70
2019-04-23T10:15:25.017Z,29.90
2019-04-23T10:17:52.102Z,30.30
2019-04-23T10:20:22.559Z,31.20
2019-04-23T10:22:52.575Z,30.30
2019-04-23T10:28:01.156Z,30.50
2019-04-23T10:30:26.976Z,30.90
2019-04-23T10:32:57.740Z,31.30
2019-04-23T10:35:39.480Z,31.10
2019-04-23T10:38:04.213Z,29.90
2019-04-23T10:40:34.796Z,29.90
2019-04-23T10:43:03.430Z,29.70
2019-04-23T10:46:18.598Z,30.00
2019-04-23T11:02:31.615Z,30.60
2019-04-23T11:12:37.235Z,31.10
2019-04-23T11:17:53.501Z,29.40
2019-04-23T11:20:27.409Z,29.80
2019-04-23T11:28:00.442Z,30.80
2019-04-23T11:35:47.638Z,30.10
2019-04-23T11:40:35.350Z,29.60
2019-04-23T11:43:09.070Z,29.30
2019-04-23T11:53:19.979Z,29.90
2019-04-23T11:55:44.798Z,29.50
2019-04-23T11:58:13.696Z,30.60
2019-04-23T12:01:26.148Z,29.70
2019-04-23T12:06:52.926Z,30.00
2019-04-23T12:12:02.236Z,29.60
2019-04-23T12:14:47.968Z,29.10
2019-04-23T12:22:38.954Z,29.60
2019-04-23T12:25:25.385Z,29.60
2019-04-23T12:27:38.608Z,29.70
2019-04-23T12:30:25.279Z,29.80
2019-04-23T12:35:23.971Z,29.30
2019-04-23T12:38:07.307Z,29.20
2019-04-23T12:40:51.429Z,28.90
2019-04-23T12:43:20.686Z,29.50
2019-04-23T12:48:35.017Z,28.80
2019-04-23T12:53:30.427Z,29.20
2019-04-23T12:56:21.919Z,29.70
2019-04-23T13:03:41.283Z,28.60
2019-04-23T13:06:17.086Z,28.20
2019-04-23T13:09:14.018Z,28.60
2019-04-23T13:11:29.816Z,28.60
2019-04-23T13:14:00.474Z,29.10
2019-04-23T13:16:38.079Z,28.60
2019-04-23T13:19:18.947Z,29.20
2019-04-23T13:24:32.758Z,28.80
2019-04-23T13:27:11.885Z,29.30
2019-04-23T13:29:42.906Z,29.30
2019-04-23T13:32:15.268Z,29.30
2019-04-23T13:34:48.407Z,30.00
2019-04-23T13:37:20.161Z,29.70
2019-04-23T13:39:43.963Z,28.30
2019-04-23T13:42:24.283Z,28.90
2019-04-23T13:44:54.795Z,29.20
2019-04-23T13:47:38.308Z,29.50
2019-04-23T13:49:57.937Z,28.50
2019-04-23T13:55:10.350Z,28.60
2019-04-23T13:58:07.264Z,29.30
2019-04-23T14:00:07.111Z,29.50
2019-04-23T14:02:56.107Z,29.90
2019-04-23T14:05:19.096Z,29.30
2019-04-23T14:07:56.538Z,29.90
2019-04-23T14:10:31.126Z,29.80
2019-04-23T14:13:15.052Z,29.80
2019-04-23T14:18:19.263Z,50.40
2019-04-23T14:25:47.806Z,29.00
2019-04-23T14:28:13.900Z,29.20
2019-04-23T14:30:39.003Z,29.30
2019-04-23T14:33:15.301Z,29.70
2019-04-23T14:35:43.290Z,29.60
2019-04-23T14:43:13.953Z,29.10
2019-04-23T14:48:23.662Z,29.30
2019-04-23T14:51:02.492Z,29.50
2019-04-23T14:53:27.208Z,28.20
2019-04-23T14:56:07.683Z,29.70
2019-04-23T15:01:22.009Z,29.50
2019-04-23T15:06:28.211Z,29.40
2019-04-23T15:08:50.073Z,29.20
2019-04-23T15:19:34.108Z,29.40
2019-04-23T15:24:32.888Z,29.80
2019-04-23T15:29:15.255Z,28.90
2019-04-23T15:34:48.914Z,41.00
2019-04-23T15:37:21.870Z,29.70
2019-04-23T15:39:38.119Z,30.80
2019-04-23T15:42:12.611Z,30.70
2019-04-23T15:44:31.805Z,29.70
2019-04-23T15:47:12.423Z,29.60
2019-04-23T15:49:47.415Z,30.50
2019-04-23T15:52:10.733Z,29.90
2019-04-23T15:57:44.986Z,29.60
2019-04-23T15:59:49.725Z,29.20
2019-04-23T16:01:51.996Z,29.60
2019-04-23T16:04:24.296Z,29.20
2019-04-23T16:06:54.059Z,29.70
2019-04-23T16:10:04.344Z,29.40
2019-04-23T16:12:27.719Z,28.90
2019-04-23T16:15:06.475Z,29.20
2019-04-23T16:17:37.510Z,29.60
2019-04-23T16:23:07.721Z,30.00
2019-04-23T16:25:44.403Z,30.10
2019-04-23T16:28:23.947Z,31.30
2019-04-23T16:30:48.160Z,30.50
2019-04-23T16:33:22.034Z,29.10
2019-04-23T16:36:11.200Z,29.50
2019-04-23T16:38:40.831Z,29.40
2019-04-23T16:41:19.691Z,29.20
2019-04-23T16:43:50.474Z,29.90
2019-04-23T16:49:10.214Z,29.50
2019-04-23T16:51:27.849Z,29.40
2019-04-23T16:54:03.074Z,30.00
2019-04-23T16:59:10.313Z,30.50
2019-04-23T17:01:27.414Z,30.50
2019-04-23T17:04:03.739Z,30.00
2019-04-23T17:06:30.958Z,30.00
2019-04-23T17:09:09.535Z,30.30
2019-04-23T17:14:16.367Z,30.20
2019-04-23T17:16:38.317Z,30.40
2019-04-23T17:19:17.765Z,30.60
2019-04-23T17:21:44.448Z,30.40
2019-04-23T17:27:03.945Z,31.40
2019-04-23T17:29:28.281Z,30.50
2019-04-23T17:32:05.591Z,31.10
2019-04-23T17:40:06.934Z,31.00
2019-04-23T17:42:43.816Z,31.30
2019-04-23T17:45:31.049Z,32.00
2019-04-23T17:48:13.243Z,31.90
2019-04-23T17:50:53.273Z,31.90
2019-04-23T17:56:14.235Z,32.50
2019-04-23T17:58:37.277Z,32.70
2019-04-23T18:01:20.163Z,32.90
2019-04-23T18:06:37.657Z,32.90
2019-04-23T18:09:00.900Z,33.20
2019-04-23T18:16:35.550Z,41.20
2019-04-23T18:22:05.508Z,33.90
2019-04-23T18:24:57.808Z,33.60
2019-04-23T18:27:27.545Z,33.60
2019-04-23T18:33:34.040Z,34.20
2019-04-23T18:37:56.838Z,34.30
2019-04-23T18:40:28.605Z,33.70
2019-04-23T18:51:01.056Z,34.20
2019-04-23T18:58:47.497Z,34.50
2019-04-23T19:06:32.603Z,34.20
2019-04-23T19:14:35.172Z,35.40
2019-04-23T19:19:31.710Z,35.50
2019-04-23T19:29:40.126Z,35.50
2019-04-23T19:37:12.945Z,37.30
2019-04-23T19:42:03.690Z,37.90
2019-04-23T19:49:41.874Z,39.90
2019-04-23T19:52:10.811Z,39.80
2019-04-23T19:57:19.882Z,39.80
2019-04-23T20:04:56.026Z,40.90
2019-04-23T20:12:39.054Z,42.40
2019-04-23T20:14:59.975Z,42.50
2019-04-23T20:22:41.946Z,42.40
2019-04-23T20:25:20.882Z,42.90
2019-04-23T20:27:42.891Z,42.90
2019-04-23T20:33:27.867Z,42.60
2019-04-23T20:35:24.362Z,42.20
2019-04-23T20:38:18.724Z,40.30
2019-04-23T20:42:58.744Z,39.70
2019-04-23T20:45:27.644Z,40.10
2019-04-23T20:47:58.090Z,40.30
2019-04-23T20:50:32.140Z,40.80
2019-04-23T20:52:52.887Z,40.80
2019-04-23T20:55:38.527Z,40.50
2019-04-23T20:58:32.306Z,40.40
2019-04-23T21:01:22.280Z,40.50
2019-04-23T21:12:27.795Z,40.50
2019-04-23T21:17:00.118Z,40.00
2019-04-23T21:19:39.485Z,39.30
2019-04-23T21:22:09.559Z,39.80
2019-04-23T21:24:35.040Z,39.80
2019-04-23T21:30:06.761Z,40.00
2019-04-23T21:32:33.214Z,39.80
2019-04-23T21:35:04.630Z,38.70
2019-04-23T21:43:10.695Z,38.70
2019-04-23T21:45:40.752Z,39.50
2019-04-23T21:48:10.292Z,39.90
2019-04-23T21:50:43.838Z,40.10
2019-04-23T21:53:11.738Z,40.40
2019-04-23T21:55:56.246Z,40.40
2019-04-23T21:58:44.210Z,40.20
2019-04-23T22:01:24.539Z,40.20
2019-04-23T22:14:11.558Z,42.60
2019-04-23T22:16:50.084Z,42.50
2019-04-23T22:19:15.502Z,43.10
2019-04-23T22:24:17.003Z,42.50
2019-04-23T22:26:51.412Z,41.20
2019-04-23T22:29:37.956Z,40.90
2019-04-23T22:34:38.920Z,42.10
2019-04-23T22:39:54.135Z,44.10
2019-04-23T22:42:42.939Z,44.60
2019-04-23T22:45:10.232Z,43.70
2019-04-23T22:47:47.952Z,44.80
2019-04-23T22:50:12.635Z,44.70
2019-04-23T22:52:53.959Z,44.50
2019-04-23T22:55:44.245Z,44.30
2019-04-23T23:00:29.337Z,44.40
2019-04-23T23:05:56.224Z,44.30
2019-04-23T23:08:13.163Z,44.00
2019-04-23T23:10:51.906Z,44.90
2019-04-23T23:13:20.706Z,45.00
2019-04-23T23:15:53.173Z,43.20
2019-04-23T23:20:59.664Z,45.20
2019-04-23T23:25:56.861Z,46.50
2019-04-23T23:28:31.386Z,46.90
2019-04-23T23:31:02.020Z,46.70
2019-04-23T23:33:23.056Z,45.50
2019-04-23T23:36:02.716Z,44.10
2019-04-23T23:38:33.454Z,45.60
2019-04-23T23:43:29.774Z,47.20
2019-04-23T23:46:06.955Z,47.80
2019-04-23T23:48:29.841Z,47.30
2019-04-23T23:51:11.500Z,47.10
2019-04-23T23:56:05.437Z,47.40
